sensor_id;sensor_type;location;lat;lon;timestamp;P1;durP1;ratioP1;P2;durP2;ratioP2
7531;SDS011;3807;49.030;8.714;2023-07-08T00:00:12;7.20;;;5.22;;
7531;SDS011;3807;49.030;8.714;2023-07-08T00:02:40;10.98;;;5.47;;
7531;SDS011;3807;49.030;8.714;2023-07-08T00:05:07;8.27;;;5.85;;
7531;SDS011;3807;49.030;8.714;2023-07-08T00:07:33;7.72;;;5.35;;
7531;SDS011;3807;49.030;8.714;2023-07-08T00:09:59;10.30;;;5.30;;
7531;SDS011;3807;49.030;8.714;2023-07-08T00:12:24;9.00;;;4.97;;
7531;SDS011;3807;49.030;8.714;2023-07-08T00:14:49;6.87;;;5.55;;
7531;SDS011;3807;49.030;8.714;2023-07-08T00:17:15;11.98;;;6.10;;
7531;SDS011;3807;49.030;8.714;2023-07-08T00:19:40;7.75;;;5.43;;
7531;SDS011;3807;49.030;8.714;2023-07-08T00:22:12;7.85;;;5.45;;
7531;SDS011;3807;49.030;8.714;2023-07-08T00:24:42;9.40;;;5.57;;
7531;SDS011;3807;49.030;8.714;2023-07-08T00:27:09;8.63;;;5.53;;
7531;SDS011;3807;49.030;8.714;2023-07-08T00:29:37;9.52;;;5.95;;
7531;SDS011;3807;49.030;8.714;2023-07-08T00:32:07;7.87;;;5.50;;
7531;SDS011;3807;49.030;8.714;2023-07-08T00:34:37;7.95;;;5.47;;
7531;SDS011;3807;49.030;8.714;2023-07-08T00:37:03;8.52;;;5.78;;
7531;SDS011;3807;49.030;8.714;2023-07-08T00:39:30;8.45;;;5.10;;
7531;SDS011;3807;49.030;8.714;2023-07-08T00:41:58;8.70;;;5.15;;
7531;SDS011;3807;49.030;8.714;2023-07-08T00:44:26;9.52;;;5.75;;
7531;SDS011;3807;49.030;8.714;2023-07-08T00:49:28;9.93;;;5.32;;
7531;SDS011;3807;49.030;8.714;2023-07-08T00:54:44;8.15;;;4.97;;
7531;SDS011;3807;49.030;8.714;2023-07-08T00:57:09;7.78;;;5.20;;
7531;SDS011;3807;49.030;8.714;2023-07-08T00:59:42;7.90;;;5.35;;
7531;SDS011;3807;49.030;8.714;2023-07-08T01:02:15;9.15;;;5.37;;
7531;SDS011;3807;49.030;8.714;2023-07-08T01:04:47;9.18;;;5.30;;
7531;SDS011;3807;49.030;8.714;2023-07-08T01:07:17;8.32;;;5.93;;
7531;SDS011;3807;49.030;8.714;2023-07-08T01:09:46;7.45;;;5.12;;
7531;SDS011;3807;49.030;8.714;2023-07-08T01:12:21;9.43;;;5.50;;
7531;SDS011;3807;49.030;8.714;2023-07-08T01:14:51;9.07;;;5.35;;
7531;SDS011;3807;49.030;8.714;2023-07-08T01:17:19;9.77;;;5.22;;
7531;SDS011;3807;49.030;8.714;2023-07-08T01:19:46;9.45;;;5.25;;
7531;SDS011;3807;49.030;8.714;2023-07-08T01:22:13;10.98;;;5.47;;
7531;SDS011;3807;49.030;8.714;2023-07-08T01:24:39;8.10;;;5.62;;
7531;SDS011;3807;49.030;8.714;2023-07-08T01:27:07;9.75;;;4.93;;
7531;SDS011;3807;49.030;8.714;2023-07-08T01:29:36;7.60;;;5.57;;
7531;SDS011;3807;49.030;8.714;2023-07-08T01:32:02;9.98;;;5.62;;
7531;SDS011;3807;49.030;8.714;2023-07-08T01:34:28;7.87;;;5.55;;
7531;SDS011;3807;49.030;8.714;2023-07-08T01:36:55;7.95;;;5.65;;
7531;SDS011;3807;49.030;8.714;2023-07-08T01:39:24;7.53;;;5.50;;
7531;SDS011;3807;49.030;8.714;2023-07-08T01:41:51;8.48;;;5.18;;
7531;SDS011;3807;49.030;8.714;2023-07-08T01:44:50;7.22;;;4.95;;
7531;SDS011;3807;49.030;8.714;2023-07-08T01:47:12;6.97;;;5.18;;
7531;SDS011;3807;49.030;8.714;2023-07-08T01:49:41;7.37;;;5.12;;
7531;SDS011;3807;49.030;8.714;2023-07-08T01:52:10;9.38;;;4.95;;
7531;SDS011;3807;49.030;8.714;2023-07-08T01:54:37;7.85;;;5.45;;
7531;SDS011;3807;49.030;8.714;2023-07-08T01:57:02;6.82;;;4.80;;
7531;SDS011;3807;49.030;8.714;2023-07-08T01:59:28;7.22;;;5.03;;
7531;SDS011;3807;49.030;8.714;2023-07-08T02:01:54;8.13;;;5.57;;
7531;SDS011;3807;49.030;8.714;2023-07-08T02:04:24;7.37;;;5.28;;
7531;SDS011;3807;49.030;8.714;2023-07-08T02:06:51;7.85;;;5.40;;
7531;SDS011;3807;49.030;8.714;2023-07-08T02:09:18;9.02;;;5.60;;
7531;SDS011;3807;49.030;8.714;2023-07-08T02:11:43;7.82;;;5.12;;
7531;SDS011;3807;49.030;8.714;2023-07-08T02:14:08;9.25;;;5.72;;
7531;SDS011;3807;49.030;8.714;2023-07-08T02:16:34;8.40;;;5.40;;
7531;SDS011;3807;49.030;8.714;2023-07-08T02:18:59;8.30;;;5.40;;
7531;SDS011;3807;49.030;8.714;2023-07-08T02:21:24;8.43;;;5.10;;
7531;SDS011;3807;49.030;8.714;2023-07-08T02:23:50;8.02;;;5.45;;
7531;SDS011;3807;49.030;8.714;2023-07-08T02:26:17;12.00;;;5.22;;
7531;SDS011;3807;49.030;8.714;2023-07-08T02:28:42;6.85;;;4.78;;
7531;SDS011;3807;49.030;8.714;2023-07-08T02:31:07;9.02;;;5.05;;
7531;SDS011;3807;49.030;8.714;2023-07-08T02:33:32;6.97;;;5.03;;
7531;SDS011;3807;49.030;8.714;2023-07-08T02:35:59;7.15;;;5.40;;
7531;SDS011;3807;49.030;8.714;2023-07-08T02:38:25;9.07;;;5.65;;
7531;SDS011;3807;49.030;8.714;2023-07-08T02:40:51;9.02;;;5.60;;
7531;SDS011;3807;49.030;8.714;2023-07-08T02:43:16;10.73;;;5.55;;
7531;SDS011;3807;49.030;8.714;2023-07-08T02:45:41;8.63;;;5.65;;
7531;SDS011;3807;49.030;8.714;2023-07-08T02:48:07;7.30;;;5.37;;
7531;SDS011;3807;49.030;8.714;2023-07-08T02:50:32;9.10;;;5.32;;
7531;SDS011;3807;49.030;8.714;2023-07-08T02:52:57;9.18;;;5.62;;
7531;SDS011;3807;49.030;8.714;2023-07-08T02:55:23;8.40;;;5.15;;
7531;SDS011;3807;49.030;8.714;2023-07-08T02:57:49;8.50;;;5.32;;
7531;SDS011;3807;49.030;8.714;2023-07-08T03:00:14;11.18;;;5.50;;
7531;SDS011;3807;49.030;8.714;2023-07-08T03:02:40;10.45;;;5.00;;
7531;SDS011;3807;49.030;8.714;2023-07-08T03:05:05;7.68;;;4.82;;
7531;SDS011;3807;49.030;8.714;2023-07-08T03:07:31;7.93;;;5.53;;
7531;SDS011;3807;49.030;8.714;2023-07-08T03:09:57;10.70;;;5.60;;
7531;SDS011;3807;49.030;8.714;2023-07-08T03:12:22;9.02;;;5.80;;
7531;SDS011;3807;49.030;8.714;2023-07-08T03:14:47;8.30;;;4.80;;
7531;SDS011;3807;49.030;8.714;2023-07-08T03:17:13;12.20;;;5.53;;
7531;SDS011;3807;49.030;8.714;2023-07-08T03:19:38;8.43;;;5.10;;
7531;SDS011;3807;49.030;8.714;2023-07-08T03:22:03;10.05;;;5.22;;
7531;SDS011;3807;49.030;8.714;2023-07-08T03:24:30;7.28;;;4.78;;
7531;SDS011;3807;49.030;8.714;2023-07-08T03:26:56;9.00;;;5.62;;
7531;SDS011;3807;49.030;8.714;2023-07-08T03:29:22;7.15;;;5.22;;
7531;SDS011;3807;49.030;8.714;2023-07-08T03:31:47;9.13;;;4.97;;
7531;SDS011;3807;49.030;8.714;2023-07-08T03:34:14;7.68;;;5.53;;
7531;SDS011;3807;49.030;8.714;2023-07-08T03:36:44;8.32;;;4.85;;
7531;SDS011;3807;49.030;8.714;2023-07-08T03:39:14;7.82;;;5.30;;
7531;SDS011;3807;49.030;8.714;2023-07-08T03:41:41;7.45;;;5.45;;
7531;SDS011;3807;49.030;8.714;2023-07-08T03:44:06;8.88;;;5.90;;
7531;SDS011;3807;49.030;8.714;2023-07-08T03:46:31;7.95;;;5.05;;
7531;SDS011;3807;49.030;8.714;2023-07-08T03:48:57;8.13;;;4.80;;
7531;SDS011;3807;49.030;8.714;2023-07-08T03:51:23;8.90;;;5.05;;
7531;SDS011;3807;49.030;8.714;2023-07-08T03:53:50;9.27;;;5.78;;
7531;SDS011;3807;49.030;8.714;2023-07-08T03:56:16;7.93;;;5.20;;
7531;SDS011;3807;49.030;8.714;2023-07-08T03:58:42;7.53;;;4.97;;
7531;SDS011;3807;49.030;8.714;2023-07-08T04:01:14;7.55;;;4.82;;
7531;SDS011;3807;49.030;8.714;2023-07-08T04:03:41;7.90;;;4.65;;
7531;SDS011;3807;49.030;8.714;2023-07-08T04:06:08;7.10;;;4.65;;
7531;SDS011;3807;49.030;8.714;2023-07-08T04:08:33;7.05;;;4.95;;
7531;SDS011;3807;49.030;8.714;2023-07-08T04:10:58;7.95;;;5.10;;
7531;SDS011;3807;49.030;8.714;2023-07-08T04:13:24;8.77;;;5.30;;
7531;SDS011;3807;49.030;8.714;2023-07-08T04:15:59;6.68;;;4.82;;
7531;SDS011;3807;49.030;8.714;2023-07-08T04:18:26;7.90;;;5.40;;
7531;SDS011;3807;49.030;8.714;2023-07-08T04:20:52;6.57;;;4.82;;
7531;SDS011;3807;49.030;8.714;2023-07-08T04:23:19;7.28;;;4.90;;
7531;SDS011;3807;49.030;8.714;2023-07-08T04:25:45;7.62;;;4.82;;
7531;SDS011;3807;49.030;8.714;2023-07-08T04:28:12;10.63;;;5.43;;
7531;SDS011;3807;49.030;8.714;2023-07-08T04:30:37;7.47;;;5.12;;
7531;SDS011;3807;49.030;8.714;2023-07-08T04:33:06;8.00;;;4.87;;
7531;SDS011;3807;49.030;8.714;2023-07-08T04:35:33;8.57;;;5.45;;
7531;SDS011;3807;49.030;8.714;2023-07-08T04:38:00;9.07;;;5.72;;
7531;SDS011;3807;49.030;8.714;2023-07-08T04:40:25;7.53;;;5.12;;
7531;SDS011;3807;49.030;8.714;2023-07-08T04:42:51;7.47;;;5.07;;
7531;SDS011;3807;49.030;8.714;2023-07-08T04:45:17;9.45;;;5.12;;
7531;SDS011;3807;49.030;8.714;2023-07-08T04:47:43;7.62;;;5.05;;
7531;SDS011;3807;49.030;8.714;2023-07-08T04:50:17;8.90;;;5.68;;
7531;SDS011;3807;49.030;8.714;2023-07-08T04:52:42;8.93;;;5.75;;
7531;SDS011;3807;49.030;8.714;2023-07-08T04:55:08;9.38;;;5.82;;
7531;SDS011;3807;49.030;8.714;2023-07-08T04:57:34;7.35;;;5.00;;
7531;SDS011;3807;49.030;8.714;2023-07-08T05:00:00;9.20;;;5.22;;
7531;SDS011;3807;49.030;8.714;2023-07-08T05:02:25;9.98;;;5.43;;
7531;SDS011;3807;49.030;8.714;2023-07-08T05:04:50;8.95;;;5.57;;
7531;SDS011;3807;49.030;8.714;2023-07-08T05:07:16;8.18;;;4.57;;
7531;SDS011;3807;49.030;8.714;2023-07-08T05:09:41;8.98;;;5.30;;
7531;SDS011;3807;49.030;8.714;2023-07-08T05:12:06;9.27;;;5.10;;
7531;SDS011;3807;49.030;8.714;2023-07-08T05:14:32;8.05;;;5.37;;
7531;SDS011;3807;49.030;8.714;2023-07-08T05:16:57;9.85;;;5.85;;
7531;SDS011;3807;49.030;8.714;2023-07-08T05:19:22;9.40;;;5.20;;
7531;SDS011;3807;49.030;8.714;2023-07-08T05:21:48;9.00;;;5.65;;
7531;SDS011;3807;49.030;8.714;2023-07-08T05:24:14;7.40;;;4.93;;
7531;SDS011;3807;49.030;8.714;2023-07-08T05:26:39;8.30;;;4.85;;
7531;SDS011;3807;49.030;8.714;2023-07-08T05:29:04;8.23;;;4.87;;
7531;SDS011;3807;49.030;8.714;2023-07-08T05:31:30;9.13;;;5.30;;
7531;SDS011;3807;49.030;8.714;2023-07-08T05:33:55;7.65;;;4.80;;
7531;SDS011;3807;49.030;8.714;2023-07-08T05:36:21;9.85;;;5.20;;
7531;SDS011;3807;49.030;8.714;2023-07-08T05:38:46;9.57;;;5.43;;
7531;SDS011;3807;49.030;8.714;2023-07-08T05:41:11;10.10;;;6.03;;
7531;SDS011;3807;49.030;8.714;2023-07-08T05:43:37;9.90;;;5.95;;
7531;SDS011;3807;49.030;8.714;2023-07-08T05:46:03;7.72;;;5.50;;
7531;SDS011;3807;49.030;8.714;2023-07-08T05:48:28;10.73;;;5.53;;
7531;SDS011;3807;49.030;8.714;2023-07-08T05:50:54;9.93;;;5.85;;
7531;SDS011;3807;49.030;8.714;2023-07-08T05:53:21;7.82;;;4.95;;
7531;SDS011;3807;49.030;8.714;2023-07-08T05:55:50;8.10;;;5.22;;
7531;SDS011;3807;49.030;8.714;2023-07-08T05:58:15;7.70;;;5.00;;
7531;SDS011;3807;49.030;8.714;2023-07-08T06:00:44;9.27;;;5.07;;
7531;SDS011;3807;49.030;8.714;2023-07-08T06:03:10;7.75;;;4.90;;
7531;SDS011;3807;49.030;8.714;2023-07-08T06:05:38;11.93;;;5.55;;
7531;SDS011;3807;49.030;8.714;2023-07-08T06:08:05;8.40;;;5.32;;
7531;SDS011;3807;49.030;8.714;2023-07-08T06:10:32;8.70;;;5.37;;
7531;SDS011;3807;49.030;8.714;2023-07-08T06:12:57;10.15;;;5.30;;
7531;SDS011;3807;49.030;8.714;2023-07-08T06:15:23;8.05;;;4.93;;
7531;SDS011;3807;49.030;8.714;2023-07-08T06:17:48;10.50;;;5.00;;
7531;SDS011;3807;49.030;8.714;2023-07-08T06:20:13;7.85;;;4.87;;
7531;SDS011;3807;49.030;8.714;2023-07-08T06:22:39;9.82;;;4.75;;
7531;SDS011;3807;49.030;8.714;2023-07-08T06:25:04;8.65;;;4.50;;
7531;SDS011;3807;49.030;8.714;2023-07-08T06:27:30;13.93;;;4.93;;
7531;SDS011;3807;49.030;8.714;2023-07-08T06:29:55;8.05;;;4.60;;
7531;SDS011;3807;49.030;8.714;2023-07-08T06:32:21;6.70;;;4.65;;
7531;SDS011;3807;49.030;8.714;2023-07-08T06:34:46;8.30;;;5.12;;
7531;SDS011;3807;49.030;8.714;2023-07-08T06:37:11;7.60;;;4.15;;
7531;SDS011;3807;49.030;8.714;2023-07-08T06:39:37;7.35;;;4.28;;
7531;SDS011;3807;49.030;8.714;2023-07-08T06:42:02;7.85;;;4.68;;
7531;SDS011;3807;49.030;8.714;2023-07-08T06:44:28;7.32;;;4.60;;
7531;SDS011;3807;49.030;8.714;2023-07-08T06:46:53;6.97;;;4.30;;
7531;SDS011;3807;49.030;8.714;2023-07-08T06:49:18;8.25;;;4.50;;
7531;SDS011;3807;49.030;8.714;2023-07-08T06:51:44;9.10;;;4.60;;
7531;SDS011;3807;49.030;8.714;2023-07-08T06:54:10;7.20;;;4.20;;
7531;SDS011;3807;49.030;8.714;2023-07-08T06:56:37;6.45;;;3.70;;
7531;SDS011;3807;49.030;8.714;2023-07-08T06:59:03;6.70;;;4.00;;
7531;SDS011;3807;49.030;8.714;2023-07-08T07:01:29;6.03;;;3.50;;
7531;SDS011;3807;49.030;8.714;2023-07-08T07:03:54;7.68;;;3.78;;
7531;SDS011;3807;49.030;8.714;2023-07-08T07:06:20;8.32;;;4.22;;
7531;SDS011;3807;49.030;8.714;2023-07-08T07:08:45;7.62;;;4.37;;
7531;SDS011;3807;49.030;8.714;2023-07-08T07:11:10;6.28;;;4.45;;
7531;SDS011;3807;49.030;8.714;2023-07-08T07:13:36;7.75;;;4.00;;
7531;SDS011;3807;49.030;8.714;2023-07-08T07:16:01;6.12;;;4.05;;
7531;SDS011;3807;49.030;8.714;2023-07-08T07:18:26;5.45;;;4.00;;
7531;SDS011;3807;49.030;8.714;2023-07-08T07:20:53;6.53;;;3.87;;
7531;SDS011;3807;49.030;8.714;2023-07-08T07:23:19;6.37;;;4.93;;
7531;SDS011;3807;49.030;8.714;2023-07-08T07:25:46;7.07;;;3.92;;
7531;SDS011;3807;49.030;8.714;2023-07-08T07:28:15;6.90;;;4.35;;
7531;SDS011;3807;49.030;8.714;2023-07-08T07:30:42;7.82;;;4.15;;
7531;SDS011;3807;49.030;8.714;2023-07-08T07:33:11;6.97;;;3.80;;
7531;SDS011;3807;49.030;8.714;2023-07-08T07:35:46;11.10;;;3.95;;
7531;SDS011;3807;49.030;8.714;2023-07-08T07:38:12;7.07;;;4.78;;
7531;SDS011;3807;49.030;8.714;2023-07-08T07:40:39;5.35;;;3.90;;
7531;SDS011;3807;49.030;8.714;2023-07-08T07:43:05;6.65;;;3.90;;
7531;SDS011;3807;49.030;8.714;2023-07-08T07:45:30;6.28;;;3.75;;
7531;SDS011;3807;49.030;8.714;2023-07-08T07:47:55;5.75;;;3.45;;
7531;SDS011;3807;49.030;8.714;2023-07-08T07:50:21;7.15;;;3.87;;
7531;SDS011;3807;49.030;8.714;2023-07-08T07:52:46;4.75;;;3.62;;
7531;SDS011;3807;49.030;8.714;2023-07-08T07:55:12;4.70;;;3.37;;
7531;SDS011;3807;49.030;8.714;2023-07-08T07:57:37;5.25;;;3.33;;
7531;SDS011;3807;49.030;8.714;2023-07-08T08:00:02;7.45;;;3.50;;
7531;SDS011;3807;49.030;8.714;2023-07-08T08:02:28;7.97;;;4.10;;
7531;SDS011;3807;49.030;8.714;2023-07-08T08:04:54;6.53;;;3.12;;
7531;SDS011;3807;49.030;8.714;2023-07-08T08:07:19;7.70;;;3.60;;
7531;SDS011;3807;49.030;8.714;2023-07-08T08:09:45;9.02;;;3.80;;
7531;SDS011;3807;49.030;8.714;2023-07-08T08:12:11;8.80;;;3.92;;
7531;SDS011;3807;49.030;8.714;2023-07-08T08:14:37;7.07;;;3.60;;
7531;SDS011;3807;49.030;8.714;2023-07-08T08:17:03;6.53;;;3.42;;
7531;SDS011;3807;49.030;8.714;2023-07-08T08:19:29;5.68;;;3.58;;
7531;SDS011;3807;49.030;8.714;2023-07-08T08:21:54;9.52;;;4.35;;
7531;SDS011;3807;49.030;8.714;2023-07-08T08:24:20;6.72;;;3.67;;
7531;SDS011;3807;49.030;8.714;2023-07-08T08:26:45;5.12;;;3.40;;
7531;SDS011;3807;49.030;8.714;2023-07-08T08:29:11;5.95;;;3.35;;
7531;SDS011;3807;49.030;8.714;2023-07-08T08:31:36;10.15;;;3.85;;
7531;SDS011;3807;49.030;8.714;2023-07-08T08:34:01;6.43;;;3.60;;
7531;SDS011;3807;49.030;8.714;2023-07-08T08:36:27;5.80;;;3.40;;
7531;SDS011;3807;49.030;8.714;2023-07-08T08:38:52;5.10;;;3.12;;
7531;SDS011;3807;49.030;8.714;2023-07-08T08:41:19;7.10;;;3.67;;
7531;SDS011;3807;49.030;8.714;2023-07-08T08:43:55;6.72;;;3.62;;
7531;SDS011;3807;49.030;8.714;2023-07-08T08:51:50;6.80;;;3.25;;
7531;SDS011;3807;49.030;8.714;2023-07-08T08:54:16;6.90;;;3.80;;
7531;SDS011;3807;49.030;8.714;2023-07-08T09:05:06;4.95;;;3.50;;
7531;SDS011;3807;49.030;8.714;2023-07-08T09:07:43;5.60;;;3.55;;
7531;SDS011;3807;49.030;8.714;2023-07-08T09:10:15;5.10;;;3.50;;
7531;SDS011;3807;49.030;8.714;2023-07-08T09:12:50;5.37;;;3.25;;
7531;SDS011;3807;49.030;8.714;2023-07-08T09:15:18;6.00;;;3.55;;
7531;SDS011;3807;49.030;8.714;2023-07-08T09:17:44;8.05;;;3.62;;
7531;SDS011;3807;49.030;8.714;2023-07-08T09:22:57;7.87;;;3.42;;
7531;SDS011;3807;49.030;8.714;2023-07-08T09:27:57;5.93;;;3.35;;
7531;SDS011;3807;49.030;8.714;2023-07-08T09:30:22;4.78;;;3.42;;
7531;SDS011;3807;49.030;8.714;2023-07-08T09:32:55;6.43;;;3.15;;
7531;SDS011;3807;49.030;8.714;2023-07-08T09:35:25;5.15;;;2.70;;
7531;SDS011;3807;49.030;8.714;2023-07-08T09:37:52;5.35;;;2.75;;
7531;SDS011;3807;49.030;8.714;2023-07-08T09:40:20;6.65;;;2.90;;
7531;SDS011;3807;49.030;8.714;2023-07-08T09:42:51;5.07;;;2.55;;
7531;SDS011;3807;49.030;8.714;2023-07-08T09:45:21;4.80;;;2.28;;
7531;SDS011;3807;49.030;8.714;2023-07-08T09:47:51;6.28;;;2.17;;
7531;SDS011;3807;49.030;8.714;2023-07-08T09:50:21;3.30;;;1.92;;
7531;SDS011;3807;49.030;8.714;2023-07-08T09:52:50;3.75;;;2.17;;
7531;SDS011;3807;49.030;8.714;2023-07-08T09:55:16;3.62;;;1.60;;
7531;SDS011;3807;49.030;8.714;2023-07-08T09:57:43;3.50;;;1.40;;
7531;SDS011;3807;49.030;8.714;2023-07-08T10:00:11;1.92;;;1.25;;
7531;SDS011;3807;49.030;8.714;2023-07-08T10:02:45;3.47;;;1.60;;
7531;SDS011;3807;49.030;8.714;2023-07-08T10:05:18;1.85;;;1.40;;
7531;SDS011;3807;49.030;8.714;2023-07-08T10:07:46;1.58;;;1.10;;
7531;SDS011;3807;49.030;8.714;2023-07-08T10:10:17;2.60;;;1.30;;
7531;SDS011;3807;49.030;8.714;2023-07-08T10:12:57;2.60;;;1.37;;
7531;SDS011;3807;49.030;8.714;2023-07-08T10:15:32;3.17;;;1.42;;
7531;SDS011;3807;49.030;8.714;2023-07-08T10:18:02;1.90;;;1.10;;
7531;SDS011;3807;49.030;8.714;2023-07-08T10:20:54;2.08;;;1.40;;
7531;SDS011;3807;49.030;8.714;2023-07-08T10:24:23;3.10;;;1.50;;
7531;SDS011;3807;49.030;8.714;2023-07-08T10:26:41;2.20;;;1.60;;
7531;SDS011;3807;49.030;8.714;2023-07-08T10:40:24;3.90;;;1.80;;
7531;SDS011;3807;49.030;8.714;2023-07-08T11:07:51;3.55;;;1.50;;
7531;SDS011;3807;49.030;8.714;2023-07-08T11:10:22;5.10;;;1.60;;
7531;SDS011;3807;49.030;8.714;2023-07-08T11:12:56;1.85;;;1.40;;
7531;SDS011;3807;49.030;8.714;2023-07-08T11:15:40;3.47;;;1.73;;
7531;SDS011;3807;49.030;8.714;2023-07-08T11:18:19;2.92;;;1.45;;
7531;SDS011;3807;49.030;8.714;2023-07-08T11:20:50;3.33;;;1.55;;
7531;SDS011;3807;49.030;8.714;2023-07-08T11:23:40;1.95;;;1.62;;
7531;SDS011;3807;49.030;8.714;2023-07-08T11:28:40;2.95;;;1.60;;
7531;SDS011;3807;49.030;8.714;2023-07-08T11:31:05;2.00;;;1.20;;
7531;SDS011;3807;49.030;8.714;2023-07-08T11:33:32;1.95;;;1.23;;
7531;SDS011;3807;49.030;8.714;2023-07-08T11:36:00;2.42;;;1.40;;
7531;SDS011;3807;49.030;8.714;2023-07-08T11:38:28;2.62;;;1.70;;
7531;SDS011;3807;49.030;8.714;2023-07-08T11:43:47;3.22;;;1.42;;
7531;SDS011;3807;49.030;8.714;2023-07-08T11:46:18;1.65;;;1.30;;
7531;SDS011;3807;49.030;8.714;2023-07-08T11:48:59;3.95;;;1.65;;
7531;SDS011;3807;49.030;8.714;2023-07-08T11:51:46;2.50;;;1.62;;
7531;SDS011;3807;49.030;8.714;2023-07-08T11:54:13;3.08;;;1.52;;
7531;SDS011;3807;49.030;8.714;2023-07-08T11:59:17;2.65;;;1.67;;
7531;SDS011;3807;49.030;8.714;2023-07-08T12:04:16;2.40;;;1.75;;
7531;SDS011;3807;49.030;8.714;2023-07-08T12:06:52;2.95;;;1.73;;
7531;SDS011;3807;49.030;8.714;2023-07-08T12:09:28;2.58;;;1.80;;
7531;SDS011;3807;49.030;8.714;2023-07-08T12:12:02;3.80;;;1.92;;
7531;SDS011;3807;49.030;8.714;2023-07-08T12:14:30;7.35;;;2.20;;
7531;SDS011;3807;49.030;8.714;2023-07-08T12:16:56;2.90;;;1.70;;
7531;SDS011;3807;49.030;8.714;2023-07-08T12:19:22;3.10;;;1.80;;
7531;SDS011;3807;49.030;8.714;2023-07-08T12:21:50;4.03;;;1.77;;
7531;SDS011;3807;49.030;8.714;2023-07-08T12:24:16;2.62;;;2.05;;
7531;SDS011;3807;49.030;8.714;2023-07-08T12:26:43;3.80;;;1.80;;
7531;SDS011;3807;49.030;8.714;2023-07-08T12:29:10;3.47;;;1.80;;
7531;SDS011;3807;49.030;8.714;2023-07-08T12:31:38;2.50;;;1.50;;
7531;SDS011;3807;49.030;8.714;2023-07-08T12:34:07;2.85;;;1.80;;
7531;SDS011;3807;49.030;8.714;2023-07-08T12:36:37;3.58;;;1.85;;
7531;SDS011;3807;49.030;8.714;2023-07-08T12:39:02;3.35;;;1.77;;
7531;SDS011;3807;49.030;8.714;2023-07-08T12:41:31;5.78;;;1.77;;
7531;SDS011;3807;49.030;8.714;2023-07-08T12:44:00;2.78;;;1.75;;
7531;SDS011;3807;49.030;8.714;2023-07-08T12:46:26;4.50;;;1.80;;
7531;SDS011;3807;49.030;8.714;2023-07-08T12:48:52;6.03;;;1.98;;
7531;SDS011;3807;49.030;8.714;2023-07-08T12:51:19;3.35;;;1.75;;
7531;SDS011;3807;49.030;8.714;2023-07-08T12:53:48;3.15;;;1.62;;
7531;SDS011;3807;49.030;8.714;2023-07-08T12:56:15;2.60;;;1.75;;
7531;SDS011;3807;49.030;8.714;2023-07-08T12:58:47;2.42;;;1.80;;
7531;SDS011;3807;49.030;8.714;2023-07-08T13:01:17;7.30;;;2.20;;
7531;SDS011;3807;49.030;8.714;2023-07-08T13:03:45;2.03;;;1.67;;
7531;SDS011;3807;49.030;8.714;2023-07-08T13:06:16;3.35;;;2.10;;
7531;SDS011;3807;49.030;8.714;2023-07-08T13:08:45;3.60;;;1.80;;
7531;SDS011;3807;49.030;8.714;2023-07-08T13:11:11;5.03;;;2.22;;
7531;SDS011;3807;49.030;8.714;2023-07-08T13:13:42;2.50;;;1.65;;
7531;SDS011;3807;49.030;8.714;2023-07-08T13:16:15;2.70;;;1.80;;
7531;SDS011;3807;49.030;8.714;2023-07-08T13:18:42;4.37;;;2.10;;
7531;SDS011;3807;49.030;8.714;2023-07-08T13:21:12;2.33;;;1.65;;
7531;SDS011;3807;49.030;8.714;2023-07-08T13:23:39;5.28;;;1.98;;
7531;SDS011;3807;49.030;8.714;2023-07-08T13:26:15;2.72;;;2.22;;
7531;SDS011;3807;49.030;8.714;2023-07-08T13:28:42;4.30;;;2.22;;
7531;SDS011;3807;49.030;8.714;2023-07-08T13:31:14;3.95;;;2.35;;
7531;SDS011;3807;49.030;8.714;2023-07-08T13:33:46;4.50;;;1.85;;
7531;SDS011;3807;49.030;8.714;2023-07-08T13:36:13;4.55;;;2.15;;
7531;SDS011;3807;49.030;8.714;2023-07-08T13:38:40;4.57;;;1.87;;
7531;SDS011;3807;49.030;8.714;2023-07-08T13:41:06;3.12;;;1.85;;
7531;SDS011;3807;49.030;8.714;2023-07-08T13:43:34;2.72;;;1.75;;
7531;SDS011;3807;49.030;8.714;2023-07-08T13:46:01;2.58;;;1.87;;
7531;SDS011;3807;49.030;8.714;2023-07-08T13:48:36;3.12;;;1.73;;
7531;SDS011;3807;49.030;8.714;2023-07-08T13:51:08;3.30;;;2.00;;
7531;SDS011;3807;49.030;8.714;2023-07-08T13:56:10;2.83;;;2.17;;
7531;SDS011;3807;49.030;8.714;2023-07-08T13:58:41;2.92;;;2.30;;
7531;SDS011;3807;49.030;8.714;2023-07-08T14:01:14;3.80;;;2.55;;
7531;SDS011;3807;49.030;8.714;2023-07-08T14:03:43;5.65;;;2.03;;
7531;SDS011;3807;49.030;8.714;2023-07-08T14:06:17;3.15;;;2.37;;
7531;SDS011;3807;49.030;8.714;2023-07-08T14:08:44;4.47;;;2.00;;
7531;SDS011;3807;49.030;8.714;2023-07-08T14:11:09;2.40;;;2.03;;
7531;SDS011;3807;49.030;8.714;2023-07-08T14:13:35;7.53;;;2.30;;
7531;SDS011;3807;49.030;8.714;2023-07-08T14:16:01;3.25;;;2.28;;
7531;SDS011;3807;49.030;8.714;2023-07-08T14:18:32;4.35;;;2.08;;
7531;SDS011;3807;49.030;8.714;2023-07-08T14:20:58;3.37;;;2.00;;
7531;SDS011;3807;49.030;8.714;2023-07-08T14:23:23;3.22;;;1.90;;
7531;SDS011;3807;49.030;8.714;2023-07-08T14:25:49;5.05;;;2.28;;
7531;SDS011;3807;49.030;8.714;2023-07-08T14:28:14;2.75;;;1.98;;
7531;SDS011;3807;49.030;8.714;2023-07-08T14:30:42;4.85;;;2.20;;
7531;SDS011;3807;49.030;8.714;2023-07-08T14:33:12;6.50;;;2.40;;
7531;SDS011;3807;49.030;8.714;2023-07-08T14:35:38;2.72;;;2.00;;
7531;SDS011;3807;49.030;8.714;2023-07-08T14:38:11;2.28;;;1.98;;
7531;SDS011;3807;49.030;8.714;2023-07-08T14:40:39;2.70;;;2.08;;
7531;SDS011;3807;49.030;8.714;2023-07-08T14:43:06;3.85;;;2.35;;
7531;SDS011;3807;49.030;8.714;2023-07-08T14:45:41;4.20;;;2.62;;
7531;SDS011;3807;49.030;8.714;2023-07-08T14:48:12;4.90;;;2.30;;
7531;SDS011;3807;49.030;8.714;2023-07-08T14:50:38;2.75;;;2.15;;
7531;SDS011;3807;49.030;8.714;2023-07-08T14:53:04;2.58;;;2.08;;
7531;SDS011;3807;49.030;8.714;2023-07-08T14:55:30;4.87;;;2.28;;
7531;SDS011;3807;49.030;8.714;2023-07-08T14:57:55;3.12;;;1.98;;
7531;SDS011;3807;49.030;8.714;2023-07-08T15:00:21;4.47;;;2.10;;
7531;SDS011;3807;49.030;8.714;2023-07-08T15:02:48;4.90;;;2.08;;
7531;SDS011;3807;49.030;8.714;2023-07-08T15:05:23;2.95;;;2.03;;
7531;SDS011;3807;49.030;8.714;2023-07-08T15:07:51;5.53;;;1.95;;
7531;SDS011;3807;49.030;8.714;2023-07-08T15:10:18;3.62;;;2.22;;
7531;SDS011;3807;49.030;8.714;2023-07-08T15:12:46;2.62;;;1.90;;
7531;SDS011;3807;49.030;8.714;2023-07-08T15:15:17;3.47;;;2.05;;
7531;SDS011;3807;49.030;8.714;2023-07-08T15:17:51;2.37;;;1.77;;
7531;SDS011;3807;49.030;8.714;2023-07-08T15:20:17;3.78;;;2.10;;
7531;SDS011;3807;49.030;8.714;2023-07-08T15:22:43;4.95;;;2.10;;
7531;SDS011;3807;49.030;8.714;2023-07-08T15:25:10;2.67;;;1.90;;
7531;SDS011;3807;49.030;8.714;2023-07-08T15:27:37;3.17;;;2.12;;
7531;SDS011;3807;49.030;8.714;2023-07-08T15:30:03;3.67;;;2.20;;
7531;SDS011;3807;49.030;8.714;2023-07-08T15:32:29;3.97;;;2.10;;
7531;SDS011;3807;49.030;8.714;2023-07-08T15:34:54;3.12;;;1.90;;
7531;SDS011;3807;49.030;8.714;2023-07-08T15:37:20;4.22;;;2.05;;
7531;SDS011;3807;49.030;8.714;2023-07-08T15:39:45;3.62;;;2.10;;
7531;SDS011;3807;49.030;8.714;2023-07-08T15:42:13;3.00;;;2.08;;
7531;SDS011;3807;49.030;8.714;2023-07-08T15:44:39;3.20;;;2.30;;
7531;SDS011;3807;49.030;8.714;2023-07-08T15:47:04;5.55;;;2.60;;
7531;SDS011;3807;49.030;8.714;2023-07-08T15:49:34;3.45;;;2.15;;
7531;SDS011;3807;49.030;8.714;2023-07-08T15:51:59;3.37;;;2.25;;
7531;SDS011;3807;49.030;8.714;2023-07-08T15:54:25;3.47;;;1.92;;
7531;SDS011;3807;49.030;8.714;2023-07-08T15:56:52;2.85;;;1.95;;
7531;SDS011;3807;49.030;8.714;2023-07-08T15:59:24;2.85;;;2.00;;
7531;SDS011;3807;49.030;8.714;2023-07-08T16:01:53;5.53;;;3.17;;
7531;SDS011;3807;49.030;8.714;2023-07-08T16:04:23;3.97;;;2.70;;
7531;SDS011;3807;49.030;8.714;2023-07-08T16:06:53;3.60;;;2.15;;
7531;SDS011;3807;49.030;8.714;2023-07-08T16:09:18;2.97;;;1.83;;
7531;SDS011;3807;49.030;8.714;2023-07-08T16:11:44;3.75;;;2.70;;
7531;SDS011;3807;49.030;8.714;2023-07-08T16:14:11;3.70;;;2.08;;
7531;SDS011;3807;49.030;8.714;2023-07-08T16:16:38;2.83;;;2.00;;
7531;SDS011;3807;49.030;8.714;2023-07-08T16:19:04;2.33;;;1.90;;
7531;SDS011;3807;49.030;8.714;2023-07-08T16:21:29;4.72;;;2.20;;
7531;SDS011;3807;49.030;8.714;2023-07-08T16:23:55;3.85;;;1.87;;
7531;SDS011;3807;49.030;8.714;2023-07-08T16:26:20;3.95;;;2.10;;
7531;SDS011;3807;49.030;8.714;2023-07-08T16:28:46;4.28;;;2.40;;
7531;SDS011;3807;49.030;8.714;2023-07-08T16:31:21;4.18;;;2.50;;